createdAt,value
2022-09-27T00:01:13.397Z,99274.50
2022-09-27T00:03:41.830Z,99272.16
2022-09-27T00:06:14.791Z,99277.59
2022-09-27T00:08:43.632Z,99279.50
2022-09-27T00:11:18.678Z,99283.38
2022-09-27T00:13:46.755Z,99280.25
2022-09-27T00:16:15.197Z,99285.28
2022-09-27T00:18:43.987Z,99288.41
2022-09-27T00:21:15.068Z,99292.69
2022-09-27T00:23:43.297Z,99293.06
2022-09-27T00:26:14.273Z,99297.31
2022-09-27T00:28:42.440Z,99288.72
2022-09-27T00:31:22.088Z,99293.38
2022-09-27T00:33:50.913Z,99295.72
2022-09-27T00:36:21.509Z,99298.88
2022-09-27T00:38:49.851Z,99295.00
2022-09-27T00:41:20.546Z,99298.88
2022-09-27T00:43:53.151Z,99302.75
2022-09-27T00:46:27.569Z,99307.47
2022-09-27T00:49:05.365Z,99309.78
2022-09-27T00:51:38.386Z,99308.25
2022-09-27T00:54:08.576Z,99303.59
2022-09-27T00:56:38.259Z,99302.03
2022-09-27T00:59:11.111Z,99301.66
2022-09-27T01:01:39.279Z,99309.91
2022-09-27T01:04:10.182Z,99301.28
2022-09-27T01:06:39.703Z,99308.25
2022-09-27T01:09:09.105Z,99298.16
2022-09-27T01:11:45.802Z,99308.66
2022-09-27T01:14:41.934Z,99309.78
2022-09-27T01:17:25.000Z,99313.22
2022-09-27T01:20:31.378Z,99315.94
2022-09-27T01:23:20.578Z,99316.03
2022-09-27T01:25:59.275Z,99318.78
2022-09-27T01:28:42.580Z,99320.22
2022-09-27T01:31:21.069Z,99320.59
2022-09-27T01:34:02.349Z,99312.38
2022-09-27T01:36:38.841Z,99308.91
2022-09-27T01:39:22.378Z,99319.38
2022-09-27T01:42:00.563Z,99314.78
2022-09-27T01:44:34.939Z,99325.25
2022-09-27T01:47:08.806Z,99313.81
2022-09-27T01:49:43.537Z,99332.44
2022-09-27T01:52:14.526Z,99323.84
2022-09-27T01:54:47.365Z,99316.84
2022-09-27T01:57:21.412Z,99327.31
2022-09-27T01:59:54.823Z,99336.16
2022-09-27T02:02:28.437Z,99325.59
2022-09-27T02:05:00.832Z,99328.31
2022-09-27T02:07:33.907Z,99333.31
2022-09-27T02:10:07.517Z,99332.53
2022-09-27T02:12:44.508Z,99333.31
2022-09-27T02:15:15.198Z,99334.47
2022-09-27T02:17:49.402Z,99330.59
2022-09-27T02:20:26.343Z,99335.63
2022-09-27T02:23:00.751Z,99341.47
2022-09-27T02:25:34.774Z,99343.78
2022-09-27T02:28:10.335Z,99348.81
2022-09-27T02:30:39.577Z,99343.38
2022-09-27T02:33:09.082Z,99347.94
2022-09-27T02:35:37.465Z,99358.03
2022-09-27T02:38:08.084Z,99357.25
2022-09-27T02:40:38.149Z,99358.81
2022-09-27T02:43:07.575Z,99350.97
2022-09-27T02:45:44.224Z,99351.75
2022-09-27T02:48:22.873Z,99357.13
2022-09-27T02:51:05.609Z,99366.38
2022-09-27T02:53:43.134Z,99359.28
2022-09-27T02:56:18.417Z,99363.97
2022-09-27T02:58:55.706Z,99354.66
2022-09-27T03:01:33.273Z,99363.97
2022-09-27T03:04:09.183Z,99365.13
2022-09-27T03:06:39.410Z,99368.63
2022-09-27T03:09:07.321Z,99362.41
2022-09-27T03:11:35.198Z,99358.84
2022-09-27T03:14:09.078Z,99359.91
2022-09-27T03:16:37.302Z,99359.13
2022-09-27T03:19:06.713Z,99358.34
2022-09-27T03:21:36.289Z,99369.28
2022-09-27T03:24:04.938Z,99363.84
2022-09-27T03:26:32.888Z,99370.44
2022-09-27T03:29:01.199Z,99366.88
2022-09-27T03:31:30.448Z,99369.22
2022-09-27T03:33:58.564Z,99368.06
2022-09-27T03:36:27.861Z,99376.16
2022-09-27T03:38:56.119Z,99374.66
2022-09-27T03:41:24.190Z,99373.09
2022-09-27T03:43:52.322Z,99374.56
2022-09-27T03:46:20.295Z,99372.31
2022-09-27T03:48:48.225Z,99376.88
2022-09-27T03:51:16.145Z,99375.28
2022-09-27T03:53:45.534Z,99376.66
2022-09-27T03:56:13.595Z,99374.72
2022-09-27T03:58:41.522Z,99377.09
2022-09-27T04:01:09.800Z,99375.84
2022-09-27T04:03:38.236Z,99373.50
2022-09-27T04:06:06.530Z,99383.56
2022-09-27T04:08:34.979Z,99387.44
2022-09-27T04:11:04.329Z,99379.28
2022-09-27T04:13:32.308Z,99389.75
2022-09-27T04:16:00.292Z,99392.72
2022-09-27T04:18:28.247Z,99387.91
2022-09-27T04:20:56.281Z,99381.50
2022-09-27T04:23:29.050Z,99385.28
2022-09-27T04:25:57.990Z,99395.38
2022-09-27T04:28:28.101Z,99397.66
2022-09-27T04:30:56.007Z,99396.78
2022-09-27T04:33:24.137Z,99402.22
2022-09-27T04:36:09.508Z,99401.41
2022-09-27T04:38:37.629Z,99405.38
2022-09-27T04:41:05.786Z,99402.66
2022-09-27T04:43:35.201Z,99397.50
2022-09-27T04:46:03.341Z,99402.03
2022-09-27T04:48:31.629Z,99395.75
2022-09-27T04:51:00.636Z,99410.56
2022-09-27T04:53:29.719Z,99405.06
2022-09-27T04:55:58.037Z,99404.16
2022-09-27T04:58:26.701Z,99403.75
2022-09-27T05:00:56.256Z,99414.19
2022-09-27T05:03:24.669Z,99415.66
2022-09-27T05:05:52.562Z,99416.44
2022-09-27T05:08:21.047Z,99418.72
2022-09-27T05:10:49.556Z,99428.44
2022-09-27T05:13:18.509Z,99419.44
2022-09-27T05:15:46.528Z,99423.97
2022-09-27T05:18:16.010Z,99424.69
2022-09-27T05:20:43.906Z,99424.75
2022-09-27T05:23:12.201Z,99428.97
2022-09-27T05:25:40.195Z,99430.13
2022-09-27T05:28:09.510Z,99430.81
2022-09-27T05:30:38.076Z,99434.66
2022-09-27T05:33:06.179Z,99440.09
2022-09-27T05:35:36.406Z,99440.81
2022-09-27T05:38:04.346Z,99444.63
2022-09-27T05:40:47.875Z,99435.38
2022-09-27T05:43:16.487Z,99443.06
2022-09-27T05:45:45.253Z,99440.34
2022-09-27T05:48:14.479Z,99443.78
2022-09-27T05:50:44.027Z,99442.19
2022-09-27T05:53:13.288Z,99440.63
2022-09-27T05:55:41.228Z,99439.03
2022-09-27T05:58:11.552Z,99449.19
2022-09-27T06:00:40.468Z,99439.84
2022-09-27T06:03:12.474Z,99443.00
2022-09-27T06:05:41.488Z,99454.63
2022-09-27T06:08:13.006Z,99453.13
2022-09-27T06:10:46.445Z,99459.81
2022-09-27T06:13:16.060Z,99455.50
2022-09-27T06:15:46.489Z,99457.88
2022-09-27T06:18:18.122Z,99448.66
2022-09-27T06:20:46.537Z,99455.84
2022-09-27T06:23:18.342Z,99452.53
2022-09-27T06:25:47.431Z,99465.50
2022-09-27T06:28:16.129Z,99467.97
2022-09-27T06:30:46.187Z,99469.88
2022-09-27T06:33:16.211Z,99473.66
2022-09-27T06:35:45.626Z,99481.47
2022-09-27T06:38:16.821Z,99471.47
2022-09-27T06:40:47.243Z,99471.47
2022-09-27T06:43:17.083Z,99478.03
2022-09-27T06:45:45.300Z,99480.03
2022-09-27T06:48:16.249Z,99484.19
2022-09-27T06:50:46.212Z,99492.84
2022-09-27T06:53:17.914Z,99504.94
2022-09-27T06:55:45.902Z,99505.44
2022-09-27T06:58:31.631Z,99500.13
2022-09-27T07:00:59.884Z,99505.19
2022-09-27T07:03:34.583Z,99489.97
2022-09-27T07:06:06.425Z,99499.34
2022-09-27T07:08:35.992Z,99493.28
2022-09-27T07:11:06.302Z,99505.16
2022-09-27T07:13:37.373Z,99501.28
2022-09-27T07:16:05.487Z,99513.72
2022-09-27T07:18:33.531Z,99502.94
2022-09-27T07:21:01.812Z,99511.97
2022-09-27T07:23:32.216Z,99521.69
2022-09-27T07:26:06.938Z,99519.75
2022-09-27T07:28:36.453Z,99517.41
2022-09-27T07:31:05.664Z,99520.03
2022-09-27T07:33:34.142Z,99509.06
2022-09-27T07:36:07.374Z,99509.78
2022-09-27T07:38:35.700Z,99517.81
2022-09-27T07:41:10.313Z,99525.09
2022-09-27T07:43:38.561Z,99523.72
2022-09-27T07:46:06.732Z,99523.19
2022-09-27T07:48:34.845Z,99523.38
2022-09-27T07:51:03.454Z,99526.50
2022-09-27T07:53:31.586Z,99523.47
2022-09-27T07:55:59.818Z,99530.38
2022-09-27T07:58:30.538Z,99535.13
2022-09-27T08:01:00.518Z,99533.69
2022-09-27T08:03:29.677Z,99542.66
2022-09-27T08:05:57.662Z,99539.78
2022-09-27T08:08:25.838Z,99554.94
2022-09-27T08:10:53.792Z,99550.00
2022-09-27T08:13:21.716Z,99562.19
2022-09-27T08:15:52.470Z,99562.88
2022-09-27T08:18:22.040Z,99560.59
2022-09-27T08:20:50.091Z,99560.69
2022-09-27T08:23:17.982Z,99565.94
2022-09-27T08:25:45.962Z,99573.41
2022-09-27T08:28:13.935Z,99567.13
2022-09-27T08:30:41.936Z,99572.50
2022-09-27T08:33:11.473Z,99572.88
2022-09-27T08:35:39.402Z,99567.06
2022-09-27T08:38:07.422Z,99579.16
2022-09-27T08:40:50.195Z,99580.56
2022-09-27T08:43:28.560Z,99576.44
2022-09-27T08:46:08.570Z,99579.47
2022-09-27T08:48:40.365Z,99582.78
2022-09-27T08:51:12.900Z,99579.63
2022-09-27T08:53:49.318Z,99573.88
2022-09-27T08:56:21.427Z,99580.22
2022-09-27T08:58:53.935Z,99581.50
2022-09-27T09:01:27.808Z,99594.41
2022-09-27T09:04:04.230Z,99585.44
2022-09-27T09:06:41.722Z,99577.66
2022-09-27T09:09:22.322Z,99587.81
2022-09-27T09:12:19.315Z,99584.66
2022-09-27T09:14:57.985Z,99594.13
2022-09-27T09:17:40.097Z,99592.97
2022-09-27T09:20:29.139Z,99599.63
2022-09-27T09:23:19.697Z,99591.56
2022-09-27T09:25:58.689Z,99589.00
2022-09-27T09:28:35.669Z,99583.28
2022-09-27T09:31:15.299Z,99582.63
2022-09-27T09:33:48.885Z,99595.59
2022-09-27T09:36:28.383Z,99588.66
2022-09-27T09:39:00.292Z,99584.84
2022-09-27T09:41:32.495Z,99584.13
2022-09-27T09:44:06.552Z,99586.56
2022-09-27T09:46:43.537Z,99593.50
2022-09-27T09:49:18.413Z,99592.31
2022-09-27T09:51:52.742Z,99588.56
2022-09-27T09:54:25.823Z,99588.56
2022-09-27T09:57:00.943Z,99592.00
2022-09-27T09:59:35.801Z,99580.84
2022-09-27T10:02:21.206Z,99576.97
2022-09-27T10:04:49.337Z,99582.47
2022-09-27T10:07:23.227Z,99577.53
2022-09-27T10:09:52.252Z,99574.81
2022-09-27T10:12:20.788Z,99579.84
2022-09-27T10:14:51.453Z,99574.09
2022-09-27T10:17:22.520Z,99562.91
2022-09-27T10:19:52.714Z,99565.38
2022-09-27T10:22:28.632Z,99557.72
2022-09-27T10:25:03.686Z,99559.78
2022-09-27T10:27:41.354Z,99562.19
2022-09-27T10:30:23.947Z,99554.47
2022-09-27T10:32:54.494Z,99549.38
2022-09-27T10:35:35.249Z,99549.56
2022-09-27T10:38:24.253Z,99554.03
2022-09-27T10:40:53.952Z,99546.38
2022-09-27T10:43:31.304Z,99552.59
2022-09-27T10:46:10.457Z,99550.94
2022-09-27T10:48:41.762Z,99553.19
2022-09-27T10:51:25.018Z,99554.63
2022-09-27T10:53:58.827Z,99559.66
2022-09-27T10:56:30.648Z,99552.16
2022-09-27T10:59:00.262Z,99553.81
2022-09-27T11:01:39.933Z,99560.53
2022-09-27T11:04:08.406Z,99564.38
2022-09-27T11:06:39.338Z,99561.66
2022-09-27T11:09:26.591Z,99557.91
2022-09-27T11:12:10.383Z,99550.38
2022-09-27T11:14:38.981Z,99559.59
2022-09-27T11:17:15.356Z,99560.41
2022-09-27T11:20:10.678Z,99559.38
2022-09-27T11:23:14.182Z,99553.66
2022-09-27T11:25:53.592Z,99558.88
2022-09-27T11:28:33.826Z,99553.13
2022-09-27T11:31:18.848Z,99553.72
2022-09-27T11:34:16.027Z,99550.97
2022-09-27T11:36:59.928Z,99538.66
2022-09-27T11:39:36.782Z,99542.63
2022-09-27T11:42:23.847Z,99544.31
2022-09-27T11:45:56.583Z,99541.94
2022-09-27T11:48:24.350Z,99544.22
2022-09-27T11:51:11.093Z,99540.19
2022-09-27T11:53:55.018Z,99537.91
2022-09-27T11:56:35.910Z,99537.66
2022-09-27T11:59:25.032Z,99536.44
2022-09-27T12:01:58.061Z,99535.59
2022-09-27T12:05:02.020Z,99536.97
2022-09-27T12:07:40.043Z,99540.91
2022-09-27T12:10:14.342Z,99537.78
2022-09-27T12:12:45.699Z,99529.84
2022-09-27T12:15:19.615Z,99541.91
2022-09-27T12:17:52.169Z,99539.19
2022-09-27T12:20:24.594Z,99537.16
2022-09-27T12:23:00.032Z,99540.63
2022-09-27T12:25:37.305Z,99535.19
2022-09-27T12:28:10.734Z,99547.47
2022-09-27T12:30:45.058Z,99547.69
2022-09-27T12:33:24.604Z,99547.91
2022-09-27T12:35:55.275Z,99545.91
2022-09-27T12:38:30.200Z,99545.63
2022-09-27T12:41:00.673Z,99544.19
2022-09-27T12:43:32.345Z,99531.38
2022-09-27T12:46:12.325Z,99537.97
2022-09-27T12:48:49.815Z,99542.28
2022-09-27T12:51:19.969Z,99543.56
2022-09-27T12:54:03.894Z,99549.00
2022-09-27T12:56:45.872Z,99553.31
2022-09-27T12:59:41.988Z,99547.44
2022-09-27T13:03:14.046Z,99562.81
2022-09-27T13:06:12.027Z,99560.53
2022-09-27T13:09:01.680Z,99563.69
2022-09-27T13:11:42.238Z,99559.78
2022-09-27T13:14:19.637Z,99561.25
2022-09-27T13:16:49.278Z,99556.66
2022-09-27T13:19:42.642Z,99551.09
2022-09-27T13:22:27.530Z,99552.78
2022-09-27T13:24:55.508Z,99558.94
2022-09-27T13:27:41.213Z,99551.97
2022-09-27T13:30:48.192Z,99560.66
2022-09-27T13:33:45.346Z,99558.88
2022-09-27T13:36:31.459Z,99551.97
2022-09-27T13:39:06.382Z,99548.16
2022-09-27T13:41:53.567Z,99541.56
2022-09-27T13:44:30.147Z,99536.97
2022-09-27T13:47:01.602Z,99534.66
2022-09-27T13:49:34.407Z,99532.78
2022-09-27T13:52:06.529Z,99526.25
2022-09-27T13:54:41.965Z,99530.25
2022-09-27T13:57:45.307Z,99521.00
2022-09-27T14:00:15.362Z,99519.31
2022-09-27T14:02:55.538Z,99518.69
2022-09-27T14:05:29.812Z,99524.84
2022-09-27T14:08:02.342Z,99528.47
2022-09-27T14:10:33.064Z,99532.31
2022-09-27T14:13:05.908Z,99536.63
2022-09-27T14:15:35.233Z,99532.34
2022-09-27T14:18:03.533Z,99528.53
2022-09-27T14:20:38.426Z,99533.22
2022-09-27T14:23:07.316Z,99532.41
2022-09-27T14:25:40.906Z,99534.75
2022-09-27T14:28:23.905Z,99534.78
2022-09-27T14:31:07.045Z,99541.84
2022-09-27T14:33:35.960Z,99526.25
2022-09-27T14:36:23.836Z,99538.69
2022-09-27T14:38:51.931Z,99541.84
2022-09-27T14:41:21.179Z,99543.44
2022-09-27T14:43:52.964Z,99537.91
2022-09-27T14:46:29.441Z,99543.97
2022-09-27T14:48:59.308Z,99550.28
2022-09-27T14:51:31.529Z,99554.16
2022-09-27T14:54:01.536Z,99545.59
2022-09-27T14:56:33.286Z,99558.09
2022-09-27T14:59:07.868Z,99552.59
2022-09-27T15:01:38.215Z,99550.19
2022-09-27T15:04:08.634Z,99559.63
2022-09-27T15:06:37.856Z,99550.69
2022-09-27T15:09:07.488Z,99543.34
2022-09-27T15:11:36.883Z,99550.88
2022-09-27T15:14:06.379Z,99548.97
2022-09-27T15:16:35.621Z,99552.88
2022-09-27T15:19:07.452Z,99548.56
2022-09-27T15:21:38.291Z,99549.69
2022-09-27T15:24:07.314Z,99544.16
2022-09-27T15:26:39.796Z,99548.81
2022-09-27T15:29:08.351Z,99548.81
2022-09-27T15:31:39.686Z,99553.31
2022-09-27T15:34:08.011Z,99551.75
2022-09-27T15:36:54.442Z,99555.56
2022-09-27T15:39:29.396Z,99552.41
2022-09-27T15:42:07.942Z,99552.31
2022-09-27T15:44:46.047Z,99548.84
2022-09-27T15:47:51.083Z,99545.09
2022-09-27T15:50:35.084Z,99550.50
2022-09-27T15:53:05.603Z,99553.34
2022-09-27T15:55:37.205Z,99552.19
2022-09-27T15:58:09.269Z,99550.63
2022-09-27T16:00:37.264Z,99552.00
2022-09-27T16:03:05.846Z,99553.56
2022-09-27T16:05:33.881Z,99551.09
2022-09-27T16:08:02.203Z,99556.44
2022-09-27T16:10:33.726Z,99560.13
2022-09-27T16:13:01.584Z,99561.72
2022-09-27T16:15:30.889Z,99557.72
2022-09-27T16:18:01.170Z,99556.88
2022-09-27T16:20:29.313Z,99553.41
2022-09-27T16:22:57.696Z,99553.03
2022-09-27T16:25:25.886Z,99544.44
2022-09-27T16:27:53.906Z,99544.41
2022-09-27T16:30:21.852Z,99544.03
2022-09-27T16:32:51.388Z,99546.38
2022-09-27T16:35:20.682Z,99546.75
2022-09-27T16:37:48.686Z,99548.34
2022-09-27T16:40:21.802Z,99547.56
2022-09-27T16:42:50.001Z,99550.69
2022-09-27T16:45:19.623Z,99553.00
2022-09-27T16:47:48.849Z,99539.75
2022-09-27T16:50:35.900Z,99541.97
2022-09-27T16:53:05.420Z,99531.38
2022-09-27T16:55:33.266Z,99538.09
2022-09-27T16:58:03.765Z,99528.72
2022-09-27T17:00:33.303Z,99537.88
2022-09-27T17:03:01.349Z,99532.28
2022-09-27T17:05:31.899Z,99526.84
2022-09-27T17:07:59.871Z,99526.44
2022-09-27T17:10:28.606Z,99519.31
2022-09-27T17:12:57.644Z,99519.16
2022-09-27T17:15:26.188Z,99522.09
2022-09-27T17:17:53.991Z,99516.19
2022-09-27T17:20:21.960Z,99515.31
2022-09-27T17:22:51.215Z,99522.63
2022-09-27T17:25:19.073Z,99519.06
2022-09-27T17:27:46.883Z,99516.88
2022-09-27T17:30:14.903Z,99523.44
2022-09-27T17:32:43.177Z,99517.91
2022-09-27T17:35:11.106Z,99521.78
2022-09-27T17:37:38.980Z,99521.72
2022-09-27T17:40:10.074Z,99520.94
2022-09-27T17:42:38.094Z,99520.50
2022-09-27T17:45:06.872Z,99508.41
2022-09-27T17:47:52.081Z,99510.75
2022-09-27T17:50:25.800Z,99516.19
2022-09-27T17:52:54.048Z,99516.13
2022-09-27T17:55:24.526Z,99513.06
2022-09-27T17:57:52.748Z,99511.63
2022-09-27T18:00:21.483Z,99511.16
2022-09-27T18:02:49.569Z,99506.47
2022-09-27T18:05:20.990Z,99497.41
2022-09-27T18:07:49.163Z,99501.28
2022-09-27T18:10:17.977Z,99503.53
2022-09-27T18:12:47.493Z,99496.44
2022-09-27T18:15:17.025Z,99490.91
2022-09-27T18:17:45.865Z,99496.28
2022-09-27T18:20:13.805Z,99493.00
2022-09-27T18:22:41.659Z,99496.06
2022-09-27T18:25:11.567Z,99496.44
2022-09-27T18:27:40.506Z,99489.78
2022-09-27T18:30:12.140Z,99496.00
2022-09-27T18:32:40.274Z,99496.66
2022-09-27T18:35:09.071Z,99489.53
2022-09-27T18:37:37.181Z,99489.22
2022-09-27T18:40:05.363Z,99491.84
2022-09-27T18:42:33.161Z,99501.16
2022-09-27T18:45:00.957Z,99502.50
2022-09-27T18:47:30.928Z,99486.88
2022-09-27T18:49:58.857Z,99493.97
2022-09-27T18:52:26.620Z,99479.09
2022-09-27T18:54:54.882Z,99491.53
2022-09-27T18:57:22.947Z,99486.81
2022-09-27T18:59:50.725Z,99488.31
2022-09-27T19:02:18.979Z,99480.66
2022-09-27T19:04:48.348Z,99476.50
2022-09-27T19:07:16.281Z,99469.19
2022-09-27T19:09:44.834Z,99466.22
2022-09-27T19:12:12.699Z,99468.56
2022-09-27T19:14:40.557Z,99465.50
2022-09-27T19:17:08.431Z,99459.97
2022-09-27T19:19:36.435Z,99463.13
2022-09-27T19:22:05.698Z,99449.19
2022-09-27T19:24:33.527Z,99448.31
2022-09-27T19:27:01.517Z,99445.16
2022-09-27T19:29:29.477Z,99437.44
2022-09-27T19:31:57.361Z,99436.69
2022-09-27T19:34:25.228Z,99434.44
2022-09-27T19:36:53.103Z,99436.00
2022-09-27T19:39:22.296Z,99431.75
2022-09-27T19:41:50.188Z,99423.59
2022-09-27T19:44:18.063Z,99432.28
2022-09-27T19:46:46.529Z,99434.72
2022-09-27T19:49:14.500Z,99435.88
2022-09-27T19:51:42.349Z,99432.41
2022-09-27T19:54:11.293Z,99427.88
2022-09-27T19:56:40.555Z,99433.41
2022-09-27T19:59:08.339Z,99427.97
2022-09-27T20:01:36.667Z,99430.25
2022-09-27T20:04:04.660Z,99436.84
2022-09-27T20:06:33.179Z,99436.84
2022-09-27T20:09:03.039Z,99434.13
2022-09-27T20:11:31.349Z,99434.13
2022-09-27T20:14:01.212Z,99442.69
2022-09-27T20:16:29.427Z,99433.41
2022-09-27T20:18:58.942Z,99433.41
2022-09-27T20:21:28.762Z,99434.13
2022-09-27T20:23:58.506Z,99427.25
2022-09-27T20:26:28.123Z,99433.34
2022-09-27T20:28:58.405Z,99427.47
2022-09-27T20:31:29.819Z,99430.63
2022-09-27T20:33:57.893Z,99423.25
2022-09-27T20:36:27.608Z,99418.25
2022-09-27T20:39:01.907Z,99412.81
2022-09-27T20:41:32.425Z,99417.66
2022-09-27T20:44:03.480Z,99402.78
2022-09-27T20:46:33.515Z,99393.41
2022-09-27T20:49:03.970Z,99394.03
2022-09-27T20:51:33.487Z,99393.19
2022-09-27T20:54:01.751Z,99390.13
2022-09-27T20:56:31.756Z,99383.53
2022-09-27T20:59:01.395Z,99382.81
2022-09-27T21:01:30.784Z,99363.41
2022-09-27T21:04:01.666Z,99369.69
2022-09-27T21:06:31.470Z,99371.63
2022-09-27T21:09:00.568Z,99365.56
2022-09-27T21:11:29.265Z,99350.75
2022-09-27T21:13:57.274Z,99346.09
2022-09-27T21:16:27.276Z,99341.06
2022-09-27T21:18:57.490Z,99345.41
2022-09-27T21:21:27.734Z,99340.00
2022-09-27T21:23:58.093Z,99336.91
2022-09-27T21:26:27.922Z,99338.50
2022-09-27T21:28:58.274Z,99330.69
2022-09-27T21:31:27.844Z,99332.63
2022-09-27T21:33:58.956Z,99332.56
2022-09-27T21:36:29.838Z,99323.56
2022-09-27T21:38:58.450Z,99318.84
2022-09-27T21:41:27.449Z,99318.91
2022-09-27T21:43:55.646Z,99318.91
2022-09-27T21:46:26.138Z,99321.63
2022-09-27T21:48:56.685Z,99321.25
2022-09-27T21:51:26.022Z,99318.19
2022-09-27T21:53:57.070Z,99314.31
2022-09-27T21:56:27.079Z,99315.91
2022-09-27T21:58:54.969Z,99318.19
2022-09-27T22:01:24.882Z,99315.91
2022-09-27T22:03:55.626Z,99315.16
2022-09-27T22:06:25.222Z,99311.28
2022-09-27T22:08:53.614Z,99313.59
2022-09-27T22:11:24.885Z,99310.88
2022-09-27T22:13:53.223Z,99316.03
2022-09-27T22:16:22.379Z,99313.69
2022-09-27T22:18:52.715Z,99315.03
2022-09-27T22:21:22.689Z,99311.16
2022-09-27T22:23:55.088Z,99310.47
2022-09-27T22:26:26.276Z,99305.84
2022-09-27T22:28:54.907Z,99307.00
2022-09-27T22:31:23.970Z,99311.28
2022-09-27T22:33:54.454Z,99305.16
2022-09-27T22:36:24.768Z,99317.59
2022-09-27T22:38:53.362Z,99316.72
2022-09-27T22:41:21.977Z,99313.59
2022-09-27T22:43:53.464Z,99321.75
2022-09-27T22:46:21.997Z,99322.13
2022-09-27T22:48:51.040Z,99317.47
2022-09-27T22:51:19.337Z,99305.00
2022-09-27T22:53:47.258Z,99303.44
2022-09-27T22:56:16.905Z,99296.00
2022-09-27T22:58:45.072Z,99302.88
2022-09-27T23:01:17.206Z,99298.44
2022-09-27T23:03:45.798Z,99297.97
2022-09-27T23:06:15.217Z,99289.31
2022-09-27T23:08:43.843Z,99288.06
2022-09-27T23:11:13.041Z,99289.22
2022-09-27T23:13:42.907Z,99290.72
2022-09-27T23:16:13.264Z,99292.66
2022-09-27T23:18:42.977Z,99292.53
2022-09-27T23:21:12.740Z,99302.16
2022-09-27T23:23:42.750Z,99291.59
2022-09-27T23:26:12.080Z,99297.03
2022-09-27T23:28:40.830Z,99297.69
2022-09-27T23:31:10.339Z,99301.13
2022-09-27T23:33:39.805Z,99299.13
2022-09-27T23:36:11.034Z,99302.19
2022-09-27T23:38:40.346Z,99298.97
2022-09-27T23:41:09.523Z,99295.41
2022-09-27T23:43:38.100Z,99306.13
2022-09-27T23:46:07.483Z,99300.53
2022-09-27T23:48:35.999Z,99304.66
2022-09-27T23:51:05.957Z,99301.88
2022-09-27T23:53:35.636Z,99303.78
2022-09-27T23:56:05.979Z,99301.06
2022-09-27T23:58:34.532Z,99301.78
